createdAt,value
2019-01-18T00:09:54.527Z,46.50
2019-01-18T00:23:17.364Z,46.50
2019-01-18T00:50:15.003Z,47.00
2019-01-18T01:03:22.123Z,47.10
2019-01-18T01:16:29.248Z,47.30
2019-01-18T01:42:40.303Z,47.60
2019-01-18T01:55:47.415Z,47.70
2019-01-18T02:08:54.587Z,47.70
2019-01-18T02:22:01.826Z,47.80
2019-01-18T02:35:08.991Z,47.90
2019-01-18T02:48:16.206Z,48.00
2019-01-18T03:01:40.056Z,48.00
2019-01-18T03:15:03.015Z,48.10
2019-01-18T03:28:25.693Z,48.10
2019-01-18T03:41:48.527Z,48.20
2019-01-18T03:55:11.326Z,48.30
2019-01-18T04:08:34.130Z,48.30
2019-01-18T04:21:56.949Z,48.30
2019-01-18T04:35:19.785Z,48.50
2019-01-18T04:48:42.601Z,49.10
2019-01-18T05:02:05.519Z,48.60
2019-01-18T05:15:28.217Z,48.60
2019-01-18T05:28:51.404Z,48.70
2019-01-18T05:42:13.894Z,48.70
2019-01-18T05:55:36.680Z,48.40
2019-01-18T06:08:59.640Z,48.20
2019-01-18T06:22:22.330Z,48.00
2019-01-18T06:35:45.184Z,45.90
2019-01-18T06:49:07.952Z,30.70
2019-01-18T07:02:30.868Z,35.50
2019-01-18T07:15:53.596Z,37.70
2019-01-18T07:29:16.398Z,39.20
2019-01-18T07:42:39.237Z,40.00
2019-01-18T07:56:02.037Z,40.50
2019-01-18T08:09:25.065Z,41.40
2019-01-18T08:22:47.697Z,42.00
2019-01-18T08:36:10.511Z,42.00
2019-01-18T08:49:33.419Z,42.20
2019-01-18T09:02:56.124Z,42.40
2019-01-18T09:16:20.287Z,42.80
2019-01-18T09:29:41.850Z,43.20
2019-01-18T09:43:04.932Z,43.30
2019-01-18T09:56:27.498Z,43.60
2019-01-18T10:22:51.876Z,43.80
2019-01-18T10:35:59.031Z,44.00
2019-01-18T10:49:06.305Z,44.00
2019-01-18T11:02:13.925Z,44.10
2019-01-18T11:16:27.909Z,44.60
2019-01-18T11:29:50.700Z,44.60
2019-01-18T11:43:13.513Z,44.80
2019-01-18T11:56:36.338Z,42.70
2019-01-18T12:09:59.137Z,44.30
2019-01-18T12:23:21.962Z,45.00
2019-01-18T12:36:44.789Z,45.30
2019-01-18T13:03:09.260Z,45.80
2019-01-18T13:16:16.423Z,46.00
2019-01-18T13:29:23.550Z,46.20
2019-01-18T13:42:30.648Z,46.20
2019-01-18T14:08:41.386Z,46.40
2019-01-18T14:21:48.573Z,46.50
2019-01-18T14:34:55.740Z,46.60
2019-01-18T14:48:02.887Z,46.60
2019-01-18T15:01:10.049Z,46.60
2019-01-18T15:14:17.189Z,46.60
2019-01-18T15:40:42.807Z,46.60
2019-01-18T15:53:49.934Z,46.60
2019-01-18T16:06:57.070Z,46.70
2019-01-18T16:20:04.218Z,46.70
2019-01-18T16:33:11.347Z,46.80
2019-01-18T16:46:18.458Z,46.70
2019-01-18T16:59:42.586Z,46.80
2019-01-18T17:13:05.370Z,47.00
2019-01-18T17:26:28.215Z,47.00
2019-01-18T17:52:52.675Z,46.90
2019-01-18T18:05:59.798Z,46.90
2019-01-18T18:19:06.946Z,46.90
2019-01-18T18:32:14.130Z,46.90
2019-01-18T18:45:21.277Z,46.90
2019-01-18T18:58:28.408Z,47.00
2019-01-18T19:11:52.457Z,46.90
2019-01-18T19:25:15.249Z,46.80
2019-01-18T19:51:39.742Z,47.40
2019-01-18T20:17:52.622Z,46.80
2019-01-18T20:30:59.776Z,46.70
2019-01-18T20:44:06.931Z,46.70
2019-01-18T20:57:14.091Z,41.60
2019-01-18T21:10:21.293Z,38.90
2019-01-18T21:23:28.467Z,37.60
2019-01-18T21:36:52.355Z,40.00
2019-01-18T21:50:15.134Z,41.30
2019-01-18T22:03:37.955Z,41.70
2019-01-18T22:17:00.805Z,42.20
2019-01-18T22:30:23.863Z,42.50
2019-01-18T22:43:46.401Z,42.90
2019-01-18T23:10:10.943Z,43.40
2019-01-18T23:23:18.095Z,43.70
2019-01-18T23:36:25.192Z,44.00
2019-01-18T23:49:32.340Z,44.30
